createdAt,value
2018-03-17T00:00:25.835Z,0
2018-03-17T00:01:34.711Z,0
2018-03-17T00:02:43.807Z,0
2018-03-17T00:03:52.633Z,0
2018-03-17T00:05:01.458Z,0
2018-03-17T00:06:10.283Z,0
2018-03-17T00:07:19.255Z,0
2018-03-17T00:08:28.080Z,0
2018-03-17T00:09:37.237Z,0
2018-03-17T00:10:46.058Z,0
2018-03-17T00:11:54.885Z,0
2018-03-17T00:13:03.810Z,0
2018-03-17T00:14:12.648Z,0
2018-03-17T00:15:21.735Z,0
2018-03-17T00:16:30.558Z,0
2018-03-17T00:17:39.383Z,0
2018-03-17T00:18:48.307Z,0
2018-03-17T00:19:57.131Z,0
2018-03-17T00:21:06.233Z,0
2018-03-17T00:22:15.059Z,0
2018-03-17T00:23:24.160Z,0
2018-03-17T00:24:33.360Z,0
2018-03-17T00:25:42.184Z,0
2018-03-17T00:26:51.286Z,0
2018-03-17T00:28:00.109Z,0
2018-03-17T00:29:08.936Z,0
2018-03-17T00:30:18.010Z,0
2018-03-17T00:31:26.836Z,0
2018-03-17T00:32:35.660Z,0
2018-03-17T00:33:44.484Z,0
2018-03-17T00:34:53.310Z,0
2018-03-17T00:36:02.133Z,0
2018-03-17T00:37:10.959Z,0
2018-03-17T00:38:19.786Z,0
2018-03-17T00:39:28.611Z,0
2018-03-17T00:40:37.438Z,0
2018-03-17T00:41:46.260Z,0
2018-03-17T00:42:55.088Z,0
2018-03-17T00:44:03.913Z,0
2018-03-17T00:45:13.017Z,0
2018-03-17T00:46:21.844Z,0
2018-03-17T00:47:30.720Z,0
2018-03-17T00:48:39.549Z,0
2018-03-17T00:49:48.367Z,0
2018-03-17T00:50:57.195Z,0
2018-03-17T00:52:06.071Z,0
2018-03-17T00:53:14.845Z,0
2018-03-17T00:54:23.672Z,0
2018-03-17T00:55:32.493Z,0
2018-03-17T00:56:41.321Z,0
2018-03-17T00:57:50.145Z,0
2018-03-17T00:58:59.372Z,0
2018-03-17T01:00:08.196Z,0
2018-03-17T01:01:17.025Z,0
2018-03-17T01:02:25.848Z,0
2018-03-17T01:03:34.675Z,0
2018-03-17T01:04:43.646Z,0
2018-03-17T01:05:52.472Z,0
2018-03-17T01:07:01.294Z,0
2018-03-17T01:08:10.120Z,0
2018-03-17T01:09:18.945Z,0
2018-03-17T01:10:28.624Z,0
2018-03-17T01:11:37.450Z,0
2018-03-17T01:12:46.554Z,0
2018-03-17T01:13:55.386Z,0
2018-03-17T01:15:04.208Z,0
2018-03-17T01:16:13.129Z,0
2018-03-17T01:17:21.951Z,0
2018-03-17T01:18:31.102Z,0
2018-03-17T01:19:39.930Z,0
2018-03-17T01:20:48.753Z,0
2018-03-17T01:21:58.003Z,0
2018-03-17T01:23:06.828Z,0
2018-03-17T01:24:15.651Z,0
2018-03-17T01:25:24.474Z,0
2018-03-17T01:26:33.298Z,0
2018-03-17T01:27:42.161Z,0
2018-03-17T01:28:50.948Z,0
2018-03-17T01:29:59.783Z,0
2018-03-17T01:31:08.609Z,0
2018-03-17T01:32:17.760Z,0
2018-03-17T01:33:26.685Z,0
2018-03-17T01:34:35.510Z,0
2018-03-17T01:35:44.336Z,0
2018-03-17T01:36:53.159Z,0
2018-03-17T01:38:01.986Z,0
2018-03-17T01:39:10.915Z,0
2018-03-17T01:40:19.739Z,0
2018-03-17T01:41:28.838Z,0
2018-03-17T01:42:37.661Z,0
2018-03-17T01:43:46.763Z,0
2018-03-17T01:44:55.836Z,0
2018-03-17T01:46:04.665Z,0
2018-03-17T01:47:13.484Z,0
2018-03-17T01:48:22.306Z,0
2018-03-17T01:49:31.132Z,0
2018-03-17T01:50:40.110Z,0
2018-03-17T01:51:48.933Z,0
2018-03-17T01:52:57.763Z,0
2018-03-17T01:54:07.137Z,0
2018-03-17T01:55:15.960Z,0
2018-03-17T01:56:24.835Z,0
2018-03-17T01:57:33.659Z,0
2018-03-17T01:58:42.481Z,0
2018-03-17T01:59:51.305Z,0
2018-03-17T02:01:00.130Z,0
2018-03-17T02:02:08.952Z,0
2018-03-17T02:03:17.775Z,0
2018-03-17T02:04:26.878Z,0
2018-03-17T02:05:35.984Z,0
2018-03-17T02:06:44.810Z,0
2018-03-17T02:07:53.783Z,0
2018-03-17T02:09:02.611Z,0
2018-03-17T02:10:11.432Z,0
2018-03-17T02:11:20.259Z,0
2018-03-17T02:12:29.082Z,0
2018-03-17T02:13:38.184Z,0
2018-03-17T02:14:47.009Z,0
2018-03-17T02:15:55.832Z,0
2018-03-17T02:17:04.653Z,0
2018-03-17T02:18:13.758Z,0
2018-03-17T02:19:22.583Z,0
2018-03-17T02:20:31.497Z,0
2018-03-17T02:21:40.276Z,0
2018-03-17T02:22:49.101Z,0
2018-03-17T02:23:57.926Z,0
2018-03-17T02:25:06.852Z,0
2018-03-17T02:26:15.679Z,0
2018-03-17T02:27:24.510Z,0
2018-03-17T02:28:33.342Z,0
2018-03-17T02:29:42.151Z,0
2018-03-17T02:30:51.032Z,0
2018-03-17T02:31:59.856Z,0
2018-03-17T02:33:08.680Z,0
2018-03-17T02:34:17.508Z,0
2018-03-17T02:35:26.331Z,0
2018-03-17T02:36:35.499Z,0
2018-03-17T02:37:44.324Z,0
2018-03-17T02:38:53.151Z,0
2018-03-17T02:40:02.559Z,0
2018-03-17T02:41:11.357Z,0
2018-03-17T02:42:21.043Z,0
2018-03-17T02:43:29.867Z,0
2018-03-17T02:44:38.973Z,0
2018-03-17T02:45:47.799Z,0
2018-03-17T02:46:56.903Z,0
2018-03-17T02:48:05.779Z,0
2018-03-17T02:49:14.604Z,0
2018-03-17T02:50:23.424Z,0
2018-03-17T02:51:32.255Z,0
2018-03-17T02:52:41.082Z,0
2018-03-17T02:53:49.951Z,0
2018-03-17T02:54:58.775Z,0
2018-03-17T02:56:07.600Z,0
2018-03-17T02:57:16.422Z,0
2018-03-17T02:58:25.279Z,0
2018-03-17T02:59:34.112Z,0
2018-03-17T03:00:42.930Z,0
2018-03-17T03:01:51.759Z,0
2018-03-17T03:03:00.581Z,0
2018-03-17T03:04:09.411Z,0
2018-03-17T03:05:18.666Z,0
2018-03-17T03:06:27.774Z,0
2018-03-17T03:07:36.600Z,0
2018-03-17T03:08:45.425Z,0
2018-03-17T03:09:54.250Z,0
2018-03-17T03:11:03.124Z,0
2018-03-17T03:12:11.947Z,0
2018-03-17T03:13:20.771Z,0
2018-03-17T03:14:29.599Z,0
2018-03-17T03:15:38.979Z,0
2018-03-17T03:16:47.803Z,0
2018-03-17T03:17:56.631Z,0
2018-03-17T03:19:05.450Z,0
2018-03-17T03:20:14.279Z,0
2018-03-17T03:21:23.100Z,0
2018-03-17T03:22:31.924Z,0
2018-03-17T03:23:40.755Z,0
2018-03-17T03:24:49.572Z,0
2018-03-17T03:25:58.667Z,0
2018-03-17T03:27:07.495Z,0
2018-03-17T03:28:16.633Z,0
2018-03-17T03:29:25.772Z,0
2018-03-17T03:30:34.582Z,0
2018-03-17T03:31:43.416Z,0
2018-03-17T03:32:52.239Z,0
2018-03-17T03:34:01.088Z,0
2018-03-17T03:35:09.887Z,0
2018-03-17T03:36:18.704Z,0
2018-03-17T03:37:27.531Z,0
2018-03-17T03:38:36.356Z,0
2018-03-17T03:39:45.614Z,0
2018-03-17T03:40:54.440Z,0
2018-03-17T03:42:03.263Z,0
2018-03-17T03:43:12.086Z,0
2018-03-17T03:44:20.911Z,0
2018-03-17T03:45:29.732Z,0
2018-03-17T03:46:38.554Z,0
2018-03-17T03:47:47.379Z,0
2018-03-17T03:48:56.202Z,0
2018-03-17T03:50:05.027Z,0
2018-03-17T03:51:13.950Z,0
2018-03-17T03:52:23.060Z,0
2018-03-17T03:53:32.159Z,0
2018-03-17T03:54:40.984Z,0
2018-03-17T03:55:49.807Z,0
2018-03-17T03:56:58.682Z,0
2018-03-17T03:58:07.503Z,0
2018-03-17T03:59:16.338Z,0
2018-03-17T04:00:25.150Z,0
2018-03-17T04:01:33.984Z,0
2018-03-17T04:02:43.381Z,0
2018-03-17T04:03:52.206Z,0
2018-03-17T04:05:01.033Z,0
2018-03-17T04:06:09.853Z,0
2018-03-17T04:07:18.676Z,0
2018-03-17T04:08:27.501Z,0
2018-03-17T04:09:36.325Z,0
2018-03-17T04:10:45.150Z,0
2018-03-17T04:11:53.971Z,0
2018-03-17T04:13:02.795Z,0
2018-03-17T04:14:11.766Z,0
2018-03-17T04:15:21.033Z,0
2018-03-17T04:16:29.856Z,0
2018-03-17T04:17:38.684Z,0
2018-03-17T04:18:47.507Z,0
2018-03-17T04:19:56.433Z,0
2018-03-17T04:21:05.256Z,0
2018-03-17T04:22:14.075Z,0
2018-03-17T04:23:22.897Z,0
2018-03-17T04:24:31.722Z,0
2018-03-17T04:25:40.550Z,0
2018-03-17T04:26:49.370Z,0
2018-03-17T04:27:58.191Z,0
2018-03-17T04:29:07.013Z,0
2018-03-17T04:30:16.108Z,0
2018-03-17T04:31:24.929Z,0
2018-03-17T04:32:33.752Z,0
2018-03-17T04:33:42.578Z,0
2018-03-17T04:34:51.400Z,0
2018-03-17T04:36:00.228Z,0
2018-03-17T04:37:09.052Z,0
2018-03-17T04:38:17.874Z,0
2018-03-17T04:39:26.979Z,0
2018-03-17T04:40:35.801Z,0
2018-03-17T04:41:44.626Z,0
2018-03-17T04:42:53.603Z,0
2018-03-17T04:44:02.427Z,0
2018-03-17T04:45:11.251Z,0
2018-03-17T04:46:20.075Z,0
2018-03-17T04:47:28.899Z,0
2018-03-17T04:48:37.819Z,0
2018-03-17T04:49:46.640Z,0
2018-03-17T04:50:55.468Z,0
2018-03-17T04:52:04.288Z,0
2018-03-17T04:53:13.111Z,0
2018-03-17T04:54:21.983Z,0
2018-03-17T04:55:30.808Z,0
2018-03-17T04:56:39.632Z,0
2018-03-17T04:57:48.454Z,0
2018-03-17T04:58:57.278Z,0
2018-03-17T05:00:06.150Z,0
2018-03-17T05:01:15.022Z,0
2018-03-17T05:02:23.843Z,0
2018-03-17T05:03:32.668Z,0
2018-03-17T05:04:41.760Z,0
2018-03-17T05:05:50.885Z,0
2018-03-17T05:06:59.705Z,0
2018-03-17T05:08:08.534Z,0
2018-03-17T05:09:17.354Z,0
2018-03-17T05:10:26.185Z,0
2018-03-17T05:11:35.311Z,0
2018-03-17T05:12:44.142Z,0
2018-03-17T05:13:52.956Z,0
2018-03-17T05:15:01.780Z,0
2018-03-17T05:16:10.605Z,0
2018-03-17T05:17:19.478Z,0
2018-03-17T05:18:28.303Z,0
2018-03-17T05:19:37.127Z,0
2018-03-17T05:20:45.949Z,0
2018-03-17T05:21:54.772Z,0
2018-03-17T05:23:03.749Z,0
2018-03-17T05:24:12.847Z,0
2018-03-17T05:25:21.670Z,0
2018-03-17T05:26:30.494Z,0
2018-03-17T05:27:39.314Z,0
2018-03-17T05:28:48.238Z,0
2018-03-17T05:29:57.060Z,0
2018-03-17T05:31:05.884Z,5
2018-03-17T05:32:15.259Z,5
2018-03-17T05:33:24.081Z,5
2018-03-17T05:34:33.009Z,5
2018-03-17T05:35:42.119Z,5
2018-03-17T05:36:50.942Z,5
2018-03-17T05:38:00.053Z,5
2018-03-17T05:39:08.872Z,5
2018-03-17T05:40:17.696Z,10
2018-03-17T05:41:26.518Z,10
2018-03-17T05:42:35.338Z,10
2018-03-17T05:43:44.164Z,10
2018-03-17T05:44:52.986Z,10
2018-03-17T05:46:01.910Z,10
2018-03-17T05:47:10.734Z,15
2018-03-17T05:48:19.556Z,15
2018-03-17T05:49:28.663Z,15
2018-03-17T05:50:37.761Z,15
2018-03-17T05:51:46.581Z,15
2018-03-17T05:52:55.406Z,15
2018-03-17T05:54:04.231Z,20
2018-03-17T05:55:13.053Z,20
2018-03-17T05:56:21.878Z,20
2018-03-17T05:57:30.814Z,20
2018-03-17T05:58:39.987Z,20
2018-03-17T05:59:48.760Z,25
2018-03-17T06:00:57.862Z,25
2018-03-17T06:02:06.686Z,25
2018-03-17T06:03:15.509Z,25
2018-03-17T06:04:24.332Z,30
2018-03-17T06:05:33.157Z,30
2018-03-17T06:06:41.980Z,30
2018-03-17T06:07:50.804Z,35
2018-03-17T06:08:59.979Z,35
2018-03-17T06:10:08.804Z,35
2018-03-17T06:11:17.629Z,40
2018-03-17T06:12:26.452Z,40
2018-03-17T06:13:35.276Z,40
2018-03-17T06:14:44.101Z,45
2018-03-17T06:15:52.923Z,45
2018-03-17T06:17:01.749Z,45
2018-03-17T06:18:10.572Z,50
2018-03-17T06:19:19.396Z,50
2018-03-17T06:20:28.221Z,55
2018-03-17T06:21:37.045Z,55
2018-03-17T06:22:45.867Z,55
2018-03-17T06:23:54.693Z,60
2018-03-17T06:25:03.515Z,60
2018-03-17T06:26:12.387Z,65
2018-03-17T06:27:21.213Z,65
2018-03-17T06:28:30.038Z,65
2018-03-17T06:29:38.859Z,70
2018-03-17T06:30:47.687Z,70
2018-03-17T06:31:56.605Z,75
2018-03-17T06:33:05.431Z,75
2018-03-17T06:34:14.531Z,80
2018-03-17T06:35:23.353Z,80
2018-03-17T06:36:32.176Z,85
2018-03-17T06:37:41.051Z,90
2018-03-17T06:38:49.874Z,90
2018-03-17T06:39:58.694Z,90
2018-03-17T06:41:07.523Z,90
2018-03-17T06:42:16.342Z,95
2018-03-17T06:43:25.218Z,100
2018-03-17T06:44:34.061Z,105
2018-03-17T06:45:42.864Z,105
2018-03-17T06:46:51.687Z,105
2018-03-17T06:48:00.511Z,110
2018-03-17T06:49:09.334Z,110
2018-03-17T06:50:18.158Z,115
2018-03-17T06:51:26.981Z,120
2018-03-17T06:52:35.806Z,120
2018-03-17T06:53:44.629Z,125
2018-03-17T06:54:53.787Z,125
2018-03-17T06:56:02.611Z,130
2018-03-17T06:57:11.435Z,130
2018-03-17T06:58:20.260Z,135
2018-03-17T06:59:29.368Z,135
2018-03-17T07:00:38.654Z,140
2018-03-17T07:01:47.415Z,140
2018-03-17T07:02:56.243Z,145
2018-03-17T07:04:05.068Z,145
2018-03-17T07:05:13.892Z,150
2018-03-17T07:06:22.867Z,150
2018-03-17T07:07:31.690Z,150
2018-03-17T07:08:40.513Z,155
2018-03-17T07:09:49.336Z,160
2018-03-17T07:10:58.160Z,170
2018-03-17T07:12:07.384Z,165
2018-03-17T07:13:16.208Z,170
2018-03-17T07:14:25.036Z,170
2018-03-17T07:15:33.857Z,170
2018-03-17T07:16:42.681Z,170
2018-03-17T07:17:51.906Z,170
2018-03-17T07:19:00.731Z,170
2018-03-17T07:20:09.556Z,170
2018-03-17T07:21:18.379Z,170
2018-03-17T07:22:27.205Z,165
2018-03-17T07:23:36.131Z,165
2018-03-17T07:24:44.954Z,165
2018-03-17T07:25:53.782Z,165
2018-03-17T07:27:02.607Z,165
2018-03-17T07:28:11.705Z,160
2018-03-17T07:29:20.630Z,160
2018-03-17T07:30:29.728Z,165
2018-03-17T07:31:38.557Z,160
2018-03-17T07:32:47.374Z,160
2018-03-17T07:33:56.200Z,160
2018-03-17T07:35:05.460Z,160
2018-03-17T07:36:14.282Z,165
2018-03-17T07:37:23.385Z,165
2018-03-17T07:38:32.210Z,165
2018-03-17T07:39:41.035Z,165
2018-03-17T07:40:49.860Z,165
2018-03-17T07:41:58.685Z,165
2018-03-17T07:43:07.507Z,160
2018-03-17T07:44:16.331Z,155
2018-03-17T07:45:25.329Z,150
2018-03-17T07:46:34.089Z,155
2018-03-17T07:47:42.914Z,155
2018-03-17T07:48:51.739Z,150
2018-03-17T07:50:00.564Z,150
2018-03-17T07:51:09.388Z,155
2018-03-17T07:52:18.262Z,155
2018-03-17T07:53:27.087Z,155
2018-03-17T07:54:35.909Z,155
2018-03-17T07:55:44.736Z,155
2018-03-17T07:56:53.844Z,155
2018-03-17T07:58:02.870Z,160
2018-03-17T07:59:11.695Z,160
2018-03-17T08:00:20.518Z,160
2018-03-17T08:01:29.341Z,160
2018-03-17T08:02:38.167Z,160
2018-03-17T08:03:47.267Z,160
2018-03-17T08:04:56.094Z,160
2018-03-17T08:06:04.918Z,160
2018-03-17T08:07:13.740Z,165
2018-03-17T08:08:22.857Z,165
2018-03-17T08:09:31.979Z,165
2018-03-17T08:10:40.805Z,170
2018-03-17T08:11:49.633Z,170
2018-03-17T08:12:58.455Z,170
2018-03-17T08:14:07.278Z,175
2018-03-17T08:15:16.158Z,180
2018-03-17T08:16:24.981Z,180
2018-03-17T08:17:33.805Z,185
2018-03-17T08:18:42.630Z,190
2018-03-17T08:19:51.460Z,190
2018-03-17T08:21:00.380Z,190
2018-03-17T08:22:09.202Z,200
2018-03-17T08:23:18.027Z,205
2018-03-17T08:24:26.851Z,205
2018-03-17T08:25:35.675Z,205
2018-03-17T08:26:44.509Z,205
2018-03-17T08:27:53.322Z,210
2018-03-17T08:29:02.147Z,220
2018-03-17T08:30:10.971Z,220
2018-03-17T08:31:19.796Z,215
2018-03-17T08:32:28.629Z,220
2018-03-17T08:33:37.726Z,220
2018-03-17T08:34:46.552Z,220
2018-03-17T08:35:55.376Z,225
2018-03-17T08:37:04.481Z,230
2018-03-17T08:38:13.458Z,230
2018-03-17T08:39:22.285Z,230
2018-03-17T08:40:31.108Z,225
2018-03-17T08:41:39.932Z,230
2018-03-17T08:42:48.764Z,230
2018-03-17T08:43:57.629Z,230
2018-03-17T08:45:06.457Z,230
2018-03-17T08:46:15.278Z,230
2018-03-17T08:47:24.105Z,230
2018-03-17T08:48:32.929Z,230
2018-03-17T08:49:41.856Z,230
2018-03-17T08:50:50.679Z,235
2018-03-17T08:51:59.506Z,240
2018-03-17T08:53:08.385Z,245
2018-03-17T08:54:17.503Z,245
2018-03-17T08:55:26.380Z,245
2018-03-17T08:56:35.205Z,240
2018-03-17T08:57:44.031Z,240
2018-03-17T08:58:53.286Z,240
2018-03-17T09:00:02.373Z,245
2018-03-17T09:01:11.526Z,255
2018-03-17T09:02:20.361Z,265
2018-03-17T09:03:29.177Z,275
2018-03-17T09:04:38.055Z,280
2018-03-17T09:05:46.877Z,280
2018-03-17T09:06:55.757Z,285
2018-03-17T09:08:04.860Z,290
2018-03-17T09:09:14.236Z,295
2018-03-17T09:10:23.333Z,295
2018-03-17T09:11:32.159Z,295
2018-03-17T09:12:41.132Z,295
2018-03-17T09:13:50.261Z,295
2018-03-17T09:14:59.085Z,295
2018-03-17T09:16:07.911Z,290
2018-03-17T09:17:16.737Z,290
2018-03-17T09:18:25.613Z,295
2018-03-17T09:19:34.712Z,285
2018-03-17T09:20:43.540Z,280
2018-03-17T09:21:52.365Z,275
2018-03-17T09:23:01.191Z,265
2018-03-17T09:24:10.351Z,260
2018-03-17T09:25:19.173Z,265
2018-03-17T09:26:27.998Z,265
2018-03-17T09:27:36.826Z,260
2018-03-17T09:28:45.931Z,260
2018-03-17T09:29:55.082Z,255
2018-03-17T09:31:03.908Z,255
2018-03-17T09:32:13.016Z,255
2018-03-17T09:33:21.844Z,255
2018-03-17T09:34:30.943Z,255
2018-03-17T09:35:39.817Z,260
2018-03-17T09:36:48.644Z,265
2018-03-17T09:37:57.470Z,275
2018-03-17T09:39:06.298Z,285
2018-03-17T09:40:15.122Z,295
2018-03-17T09:41:23.946Z,305
2018-03-17T09:42:32.771Z,310
2018-03-17T09:43:41.596Z,315
2018-03-17T09:44:50.422Z,315
2018-03-17T09:45:59.246Z,315
2018-03-17T09:47:08.171Z,320
2018-03-17T09:48:17.088Z,320
2018-03-17T09:49:25.818Z,330
2018-03-17T09:50:34.644Z,345
2018-03-17T09:51:43.472Z,355
2018-03-17T09:52:52.347Z,365
2018-03-17T09:54:01.172Z,365
2018-03-17T09:55:10.001Z,355
2018-03-17T09:56:18.836Z,355
2018-03-17T09:57:27.932Z,355
2018-03-17T09:58:37.240Z,345
2018-03-17T09:59:46.068Z,345
2018-03-17T10:00:54.892Z,350
2018-03-17T10:02:03.996Z,350
2018-03-17T10:03:12.823Z,335
2018-03-17T10:04:22.125Z,330
2018-03-17T10:05:30.952Z,330
2018-03-17T10:06:40.337Z,335
2018-03-17T10:07:49.162Z,340
2018-03-17T10:08:57.989Z,345
2018-03-17T10:10:07.394Z,355
2018-03-17T10:11:16.223Z,360
2018-03-17T10:12:25.048Z,365
2018-03-17T10:13:33.874Z,375
2018-03-17T10:14:42.703Z,385
2018-03-17T10:15:51.832Z,385
2018-03-17T10:17:00.664Z,395
2018-03-17T10:18:09.493Z,400
2018-03-17T10:19:18.331Z,400
2018-03-17T10:20:27.158Z,395
2018-03-17T10:21:36.286Z,395
2018-03-17T10:22:45.115Z,395
2018-03-17T10:23:53.941Z,400
2018-03-17T10:25:02.768Z,405
2018-03-17T10:26:11.896Z,405
2018-03-17T10:27:20.827Z,405
2018-03-17T10:28:29.657Z,395
2018-03-17T10:29:38.486Z,390
2018-03-17T10:30:47.312Z,385
2018-03-17T10:31:56.142Z,385
2018-03-17T10:33:05.067Z,380
2018-03-17T10:34:13.899Z,370
2018-03-17T10:35:22.723Z,370
2018-03-17T10:36:31.550Z,370
2018-03-17T10:37:40.377Z,365
2018-03-17T10:38:49.352Z,360
2018-03-17T10:39:58.180Z,360
2018-03-17T10:41:07.014Z,370
2018-03-17T10:42:15.851Z,370
2018-03-17T10:43:24.668Z,370
2018-03-17T10:44:33.896Z,365
2018-03-17T10:45:42.725Z,350
2018-03-17T10:46:51.826Z,345
2018-03-17T10:48:00.655Z,345
2018-03-17T10:49:09.479Z,345
2018-03-17T10:50:18.460Z,345
2018-03-17T10:51:27.286Z,340
2018-03-17T10:52:36.116Z,340
2018-03-17T10:53:45.225Z,340
2018-03-17T10:54:54.055Z,335
2018-03-17T10:56:02.881Z,330
2018-03-17T10:57:11.996Z,335
2018-03-17T10:58:20.821Z,335
2018-03-17T10:59:29.649Z,335
2018-03-17T11:00:38.477Z,335
2018-03-17T11:01:47.407Z,330
2018-03-17T11:02:56.233Z,330
2018-03-17T11:04:05.061Z,320
2018-03-17T11:05:13.888Z,325
2018-03-17T11:06:23.054Z,325
2018-03-17T11:07:32.032Z,325
2018-03-17T11:08:40.959Z,320
2018-03-17T11:09:49.789Z,320
2018-03-17T11:10:58.617Z,325
2018-03-17T11:12:07.444Z,340
2018-03-17T11:13:16.422Z,355
2018-03-17T11:14:25.318Z,395
2018-03-17T11:15:34.078Z,435
2018-03-17T11:16:43.180Z,475
2018-03-17T11:17:52.008Z,510
2018-03-17T11:19:00.838Z,540
2018-03-17T11:20:09.939Z,545
2018-03-17T11:21:18.771Z,565
2018-03-17T11:22:27.598Z,590
2018-03-17T11:23:36.427Z,615
2018-03-17T11:24:45.354Z,640
2018-03-17T11:25:54.183Z,660
2018-03-17T11:27:03.014Z,670
2018-03-17T11:28:11.839Z,675
2018-03-17T11:29:20.669Z,675
2018-03-17T11:30:29.647Z,675
2018-03-17T11:31:38.476Z,670
2018-03-17T11:32:47.305Z,665
2018-03-17T11:33:56.136Z,660
2018-03-17T11:35:04.963Z,665
2018-03-17T11:36:14.071Z,660
2018-03-17T11:37:23.174Z,655
2018-03-17T11:38:32.005Z,655
2018-03-17T11:39:40.835Z,650
2018-03-17T11:40:49.665Z,650
2018-03-17T11:41:58.773Z,640
2018-03-17T11:43:07.603Z,620
2018-03-17T11:44:16.433Z,590
2018-03-17T11:45:25.261Z,560
2018-03-17T11:46:34.097Z,530
2018-03-17T11:47:43.029Z,500
2018-03-17T11:48:51.859Z,470
2018-03-17T11:50:00.692Z,455
2018-03-17T11:51:09.522Z,435
2018-03-17T11:52:18.353Z,440
2018-03-17T11:53:27.335Z,445
2018-03-17T11:54:36.164Z,445
2018-03-17T11:55:44.997Z,445
2018-03-17T11:56:53.829Z,455
2018-03-17T11:58:02.660Z,465
2018-03-17T11:59:11.591Z,455
2018-03-17T12:00:20.426Z,440
2018-03-17T12:01:29.252Z,435
2018-03-17T12:02:38.081Z,435
2018-03-17T12:03:46.910Z,455
2018-03-17T12:04:56.140Z,545
2018-03-17T12:06:05.530Z,1340
2018-03-17T12:07:14.361Z,1815
2018-03-17T12:08:23.191Z,1360
2018-03-17T12:09:32.017Z,1355
2018-03-17T12:10:41.008Z,1385
2018-03-17T12:11:49.832Z,1505
2018-03-17T12:12:58.660Z,1700
2018-03-17T12:14:07.488Z,1615
2018-03-17T12:15:16.319Z,1525
2018-03-17T12:16:25.251Z,1550
2018-03-17T12:17:34.085Z,1485
2018-03-17T12:18:42.921Z,1540
2018-03-17T12:19:51.758Z,1640
2018-03-17T12:21:00.586Z,1345
2018-03-17T12:22:09.569Z,1655
2018-03-17T12:23:18.401Z,1485
2018-03-17T12:24:27.236Z,1330
2018-03-17T12:25:36.346Z,1300
2018-03-17T12:26:45.182Z,1410
2018-03-17T12:27:54.219Z,1235
2018-03-17T12:29:03.058Z,1080
2018-03-17T12:30:11.886Z,1240
2018-03-17T12:31:20.720Z,1340
2018-03-17T12:32:29.554Z,1230
2018-03-17T12:33:38.438Z,1200
2018-03-17T12:34:47.271Z,1090
2018-03-17T12:35:56.104Z,1005
2018-03-17T12:37:04.941Z,1260
2018-03-17T12:38:13.772Z,1260
2018-03-17T12:39:22.906Z,1335
2018-03-17T12:40:31.778Z,1270
2018-03-17T12:41:40.578Z,1035
2018-03-17T12:42:49.411Z,1040
2018-03-17T12:43:58.244Z,1040
2018-03-17T12:45:07.230Z,1055
2018-03-17T12:46:16.064Z,995
2018-03-17T12:47:24.898Z,1010
2018-03-17T12:48:33.734Z,1195
2018-03-17T12:49:42.849Z,1570
2018-03-17T12:50:51.785Z,1530
2018-03-17T12:52:00.622Z,1505
2018-03-17T12:53:09.460Z,2010
2018-03-17T12:54:18.295Z,2125
2018-03-17T12:55:27.134Z,1920
2018-03-17T12:56:35.969Z,1695
2018-03-17T12:57:44.805Z,1580
2018-03-17T12:58:53.641Z,1985
2018-03-17T13:00:02.479Z,1810
2018-03-17T13:01:11.315Z,1930
2018-03-17T13:02:20.453Z,2190
2018-03-17T13:03:29.290Z,2160
2018-03-17T13:04:38.129Z,2325
2018-03-17T13:05:47.241Z,2140
2018-03-17T13:06:56.080Z,1790
2018-03-17T13:08:04.969Z,945
2018-03-17T13:09:13.807Z,800
2018-03-17T13:10:22.926Z,985
2018-03-17T13:11:31.765Z,1270
2018-03-17T13:12:40.606Z,1460
2018-03-17T13:13:49.544Z,1265
2018-03-17T13:14:58.381Z,915
2018-03-17T13:16:07.220Z,1030
2018-03-17T13:17:16.058Z,870
2018-03-17T13:18:24.896Z,775
2018-03-17T13:19:34.435Z,670
2018-03-17T13:20:43.547Z,745
2018-03-17T13:21:52.388Z,660
2018-03-17T13:23:01.501Z,655
2018-03-17T13:24:10.339Z,745
2018-03-17T13:25:19.452Z,1615
2018-03-17T13:26:28.292Z,1820
2018-03-17T13:27:37.122Z,975
2018-03-17T13:28:45.961Z,395
2018-03-17T13:29:54.803Z,585
2018-03-17T13:31:04.113Z,850
2018-03-17T13:32:12.948Z,770
2018-03-17T13:33:21.783Z,810
2018-03-17T13:34:30.616Z,1100
2018-03-17T13:35:39.451Z,1180
2018-03-17T13:36:48.338Z,1255
2018-03-17T13:37:57.171Z,1160
2018-03-17T13:39:06.005Z,545
2018-03-17T13:40:14.839Z,745
2018-03-17T13:41:23.670Z,625
2018-03-17T13:42:32.504Z,715
2018-03-17T13:43:41.338Z,935
2018-03-17T13:44:50.446Z,900
2018-03-17T13:45:59.277Z,1090
2018-03-17T13:47:08.112Z,1170
2018-03-17T13:48:17.189Z,745
2018-03-17T13:49:25.877Z,1175
2018-03-17T13:50:34.710Z,1265
2018-03-17T13:51:44.097Z,1420
2018-03-17T13:52:52.930Z,1410
2018-03-17T13:54:01.829Z,1680
2018-03-17T13:55:10.652Z,1690
2018-03-17T13:56:19.487Z,1670
2018-03-17T13:57:28.322Z,1800
2018-03-17T13:58:37.171Z,1470
2018-03-17T13:59:46.041Z,1855
2018-03-17T14:00:55.155Z,1570
2018-03-17T14:02:03.992Z,1565
2018-03-17T14:03:13.103Z,1800
2018-03-17T14:04:21.938Z,1515
2018-03-17T14:05:31.151Z,1555
2018-03-17T14:06:39.989Z,1950
2018-03-17T14:07:48.827Z,1420
2018-03-17T14:08:57.663Z,520
2018-03-17T14:10:06.792Z,450
2018-03-17T14:11:15.679Z,425
2018-03-17T14:12:24.515Z,470
2018-03-17T14:13:33.350Z,895
2018-03-17T14:14:42.186Z,1830
2018-03-17T14:15:51.021Z,2095
2018-03-17T14:16:59.954Z,2170
2018-03-17T14:18:08.789Z,1955
2018-03-17T14:19:17.629Z,1065
2018-03-17T14:20:26.464Z,1665
2018-03-17T14:21:35.302Z,2415
2018-03-17T14:22:44.292Z,2360
2018-03-17T14:23:53.180Z,1940
2018-03-17T14:25:01.967Z,2080
2018-03-17T14:26:10.809Z,2270
2018-03-17T14:27:19.646Z,1875
2018-03-17T14:28:28.536Z,1985
2018-03-17T14:29:37.376Z,1780
2018-03-17T14:30:46.272Z,1835
2018-03-17T14:31:55.111Z,1990
2018-03-17T14:33:04.227Z,2115
2018-03-17T14:34:13.168Z,1110
2018-03-17T14:35:22.009Z,705
2018-03-17T14:36:30.848Z,2075
2018-03-17T14:37:39.687Z,1795
2018-03-17T14:38:48.529Z,2085
2018-03-17T14:39:57.366Z,2075
2018-03-17T14:41:06.207Z,1430
2018-03-17T14:42:15.046Z,1320
2018-03-17T14:43:23.887Z,1280
2018-03-17T14:44:32.725Z,1620
2018-03-17T14:45:41.566Z,1325
2018-03-17T14:46:50.451Z,1465
2018-03-17T14:47:59.243Z,1430
2018-03-17T14:49:08.084Z,1320
2018-03-17T14:50:16.921Z,1190
2018-03-17T14:51:25.860Z,820
2018-03-17T14:52:34.697Z,765
2018-03-17T14:53:43.540Z,515
2018-03-17T14:54:52.376Z,460
2018-03-17T14:56:01.214Z,575
2018-03-17T14:57:10.198Z,970
2018-03-17T14:58:19.313Z,1100
2018-03-17T14:59:28.155Z,1220
2018-03-17T15:00:36.985Z,1080
2018-03-17T15:01:45.821Z,1225
2018-03-17T15:02:54.958Z,1140
2018-03-17T15:04:03.797Z,1445
2018-03-17T15:05:12.633Z,1300
2018-03-17T15:06:21.470Z,1230
2018-03-17T15:07:30.307Z,890
2018-03-17T15:08:39.474Z,685
2018-03-17T15:09:48.311Z,1270
2018-03-17T15:10:57.146Z,830
2018-03-17T15:12:05.983Z,1280
2018-03-17T15:13:14.819Z,1015
2018-03-17T15:14:23.664Z,575
2018-03-17T15:15:32.499Z,825
2018-03-17T15:16:41.337Z,885
2018-03-17T15:17:50.452Z,625
2018-03-17T15:18:59.288Z,585
2018-03-17T15:20:08.273Z,765
2018-03-17T15:21:17.108Z,765
2018-03-17T15:22:25.941Z,755
2018-03-17T15:23:34.776Z,630
2018-03-17T15:24:43.609Z,600
2018-03-17T15:25:52.441Z,695
2018-03-17T15:27:01.275Z,910
2018-03-17T15:28:10.117Z,700
2018-03-17T15:29:18.947Z,590
2018-03-17T15:30:27.783Z,765
2018-03-17T15:31:36.916Z,845
2018-03-17T15:32:45.749Z,600
2018-03-17T15:33:54.609Z,460
2018-03-17T15:35:03.414Z,610
2018-03-17T15:36:12.252Z,525
2018-03-17T15:37:21.181Z,710
2018-03-17T15:38:30.016Z,650
2018-03-17T15:39:38.850Z,730
2018-03-17T15:40:47.688Z,665
2018-03-17T15:41:56.522Z,1065
2018-03-17T15:43:05.631Z,1060
2018-03-17T15:44:14.465Z,1200
2018-03-17T15:45:23.303Z,1145
2018-03-17T15:46:32.138Z,1225
2018-03-17T15:47:41.247Z,1125
2018-03-17T15:48:50.233Z,1105
2018-03-17T15:49:59.068Z,1150
2018-03-17T15:51:07.903Z,1285
2018-03-17T15:52:16.739Z,1175
2018-03-17T15:53:25.576Z,1190
2018-03-17T15:54:34.466Z,1195
2018-03-17T15:55:43.303Z,1135
2018-03-17T15:56:52.145Z,1015
2018-03-17T15:58:00.985Z,885
2018-03-17T15:59:09.821Z,915
2018-03-17T16:00:18.659Z,830
2018-03-17T16:01:27.497Z,770
2018-03-17T16:02:36.334Z,860
2018-03-17T16:03:45.447Z,765
2018-03-17T16:04:54.285Z,715
2018-03-17T16:06:03.498Z,810
2018-03-17T16:07:12.621Z,750
2018-03-17T16:08:21.733Z,640